sensor_id;sensor_type;location;lat;lon;timestamp;P1;durP1;ratioP1;P2;durP2;ratioP2
20486;SDS011;10402;49.012;8.370;2023-07-30T00:01:24;984.83;;;913.33;;
20486;SDS011;10402;49.012;8.370;2023-07-30T00:03:49;975.60;;;904.93;;
20486;SDS011;10402;49.012;8.370;2023-07-30T00:06:15;976.40;;;904.90;;
20486;SDS011;10402;49.012;8.370;2023-07-30T00:08:40;968.67;;;898.07;;
20486;SDS011;10402;49.012;8.370;2023-07-30T00:11:06;979.37;;;907.40;;
20486;SDS011;10402;49.012;8.370;2023-07-30T00:13:31;970.57;;;899.53;;
20486;SDS011;10402;49.012;8.370;2023-07-30T00:15:57;975.70;;;902.57;;
20486;SDS011;10402;49.012;8.370;2023-07-30T00:18:22;974.67;;;902.03;;
20486;SDS011;10402;49.012;8.370;2023-07-30T00:20:48;963.23;;;891.73;;
20486;SDS011;10402;49.012;8.370;2023-07-30T00:23:13;972.80;;;900.80;;
20486;SDS011;10402;49.012;8.370;2023-07-30T00:25:39;985.07;;;911.50;;
20486;SDS011;10402;49.012;8.370;2023-07-30T00:28:04;978.23;;;905.90;;
20486;SDS011;10402;49.012;8.370;2023-07-30T00:30:30;967.20;;;896.47;;
20486;SDS011;10402;49.012;8.370;2023-07-30T00:32:55;973.83;;;902.37;;
20486;SDS011;10402;49.012;8.370;2023-07-30T00:35:21;973.23;;;902.10;;
20486;SDS011;10402;49.012;8.370;2023-07-30T00:37:47;987.07;;;915.10;;
20486;SDS011;10402;49.012;8.370;2023-07-30T00:40:12;976.73;;;906.30;;
20486;SDS011;10402;49.012;8.370;2023-07-30T00:42:38;952.90;;;884.60;;
20486;SDS011;10402;49.012;8.370;2023-07-30T00:45:04;973.50;;;904.17;;
20486;SDS011;10402;49.012;8.370;2023-07-30T00:47:30;954.27;;;885.33;;
20486;SDS011;10402;49.012;8.370;2023-07-30T00:49:56;944.27;;;877.87;;
20486;SDS011;10402;49.012;8.370;2023-07-30T00:52:22;945.17;;;878.30;;
20486;SDS011;10402;49.012;8.370;2023-07-30T00:54:50;941.23;;;874.90;;
20486;SDS011;10402;49.012;8.370;2023-07-30T00:57:17;958.27;;;889.80;;
20486;SDS011;10402;49.012;8.370;2023-07-30T00:59:44;971.60;;;901.47;;
20486;SDS011;10402;49.012;8.370;2023-07-30T01:02:10;980.33;;;909.13;;
20486;SDS011;10402;49.012;8.370;2023-07-30T01:04:36;976.77;;;905.93;;
20486;SDS011;10402;49.012;8.370;2023-07-30T01:07:04;978.73;;;907.57;;
20486;SDS011;10402;49.012;8.370;2023-07-30T01:09:30;969.13;;;898.87;;
20486;SDS011;10402;49.012;8.370;2023-07-30T01:11:56;986.90;;;915.37;;
20486;SDS011;10402;49.012;8.370;2023-07-30T01:14:25;980.87;;;908.97;;
20486;SDS011;10402;49.012;8.370;2023-07-30T01:16:54;990.67;;;918.00;;
20486;SDS011;10402;49.012;8.370;2023-07-30T01:19:19;990.17;;;917.13;;
20486;SDS011;10402;49.012;8.370;2023-07-30T01:21:45;991.00;;;917.43;;
20486;SDS011;10402;49.012;8.370;2023-07-30T01:24:10;1000.83;;;926.37;;
20486;SDS011;10402;49.012;8.370;2023-07-30T01:29:15;1004.33;;;931.53;;
20486;SDS011;10402;49.012;8.370;2023-07-30T01:31:46;1004.53;;;931.37;;
20486;SDS011;10402;49.012;8.370;2023-07-30T01:34:19;1009.03;;;935.17;;
20486;SDS011;10402;49.012;8.370;2023-07-30T01:36:45;1011.77;;;938.03;;
20486;SDS011;10402;49.012;8.370;2023-07-30T01:39:13;1025.83;;;950.83;;
20486;SDS011;10402;49.012;8.370;2023-07-30T01:41:39;1018.00;;;943.30;;
20486;SDS011;10402;49.012;8.370;2023-07-30T01:44:05;1022.97;;;947.03;;
20486;SDS011;10402;49.012;8.370;2023-07-30T01:46:30;1015.73;;;940.83;;
20486;SDS011;10402;49.012;8.370;2023-07-30T01:48:56;1018.50;;;942.50;;
20486;SDS011;10402;49.012;8.370;2023-07-30T01:51:21;1011.63;;;936.80;;
20486;SDS011;10402;49.012;8.370;2023-07-30T01:53:47;1009.90;;;935.07;;
20486;SDS011;10402;49.012;8.370;2023-07-30T01:56:12;1015.50;;;940.17;;
20486;SDS011;10402;49.012;8.370;2023-07-30T01:58:38;1004.03;;;929.27;;
20486;SDS011;10402;49.012;8.370;2023-07-30T02:01:03;1015.27;;;938.63;;
20486;SDS011;10402;49.012;8.370;2023-07-30T02:03:29;985.10;;;911.80;;
20486;SDS011;10402;49.012;8.370;2023-07-30T02:05:54;998.27;;;922.57;;
20486;SDS011;10402;49.012;8.370;2023-07-30T02:08:20;1000.43;;;924.90;;
20486;SDS011;10402;49.012;8.370;2023-07-30T02:10:54;991.50;;;916.03;;
20486;SDS011;10402;49.012;8.370;2023-07-30T02:13:20;988.50;;;913.33;;
20486;SDS011;10402;49.012;8.370;2023-07-30T02:15:46;988.10;;;913.13;;
20486;SDS011;10402;49.012;8.370;2023-07-30T02:18:11;969.40;;;897.97;;
20486;SDS011;10402;49.012;8.370;2023-07-30T02:20:37;979.73;;;907.27;;
20486;SDS011;10402;49.012;8.370;2023-07-30T02:23:02;980.20;;;907.37;;
20486;SDS011;10402;49.012;8.370;2023-07-30T02:25:28;992.43;;;918.53;;
20486;SDS011;10402;49.012;8.370;2023-07-30T02:27:54;978.20;;;906.03;;
20486;SDS011;10402;49.012;8.370;2023-07-30T02:30:20;967.03;;;895.87;;
20486;SDS011;10402;49.012;8.370;2023-07-30T02:32:45;989.90;;;916.63;;
20486;SDS011;10402;49.012;8.370;2023-07-30T02:35:11;986.87;;;913.10;;
20486;SDS011;10402;49.012;8.370;2023-07-30T02:37:36;989.83;;;915.93;;
20486;SDS011;10402;49.012;8.370;2023-07-30T02:40:02;1002.63;;;926.77;;
20486;SDS011;10402;49.012;8.370;2023-07-30T02:42:29;997.70;;;923.50;;
20486;SDS011;10402;49.012;8.370;2023-07-30T02:44:56;977.93;;;905.37;;
20486;SDS011;10402;49.012;8.370;2023-07-30T02:47:21;993.43;;;919.80;;
20486;SDS011;10402;49.012;8.370;2023-07-30T02:49:47;1001.53;;;927.27;;
20486;SDS011;10402;49.012;8.370;2023-07-30T02:52:12;996.70;;;922.17;;
20486;SDS011;10402;49.012;8.370;2023-07-30T02:54:38;984.97;;;911.87;;
20486;SDS011;10402;49.012;8.370;2023-07-30T02:57:03;985.77;;;912.33;;
20486;SDS011;10402;49.012;8.370;2023-07-30T02:59:29;999.10;;;923.83;;
20486;SDS011;10402;49.012;8.370;2023-07-30T03:01:55;1011.57;;;935.17;;
20486;SDS011;10402;49.012;8.370;2023-07-30T03:04:20;990.37;;;915.17;;
20486;SDS011;10402;49.012;8.370;2023-07-30T03:06:46;1008.30;;;932.63;;
20486;SDS011;10402;49.012;8.370;2023-07-30T03:09:11;1011.93;;;935.47;;
20486;SDS011;10402;49.012;8.370;2023-07-30T03:11:37;1007.20;;;932.17;;
20486;SDS011;10402;49.012;8.370;2023-07-30T03:14:02;986.13;;;913.30;;
20486;SDS011;10402;49.012;8.370;2023-07-30T03:16:28;999.87;;;924.60;;
20486;SDS011;10402;49.012;8.370;2023-07-30T03:18:53;999.73;;;926.07;;
20486;SDS011;10402;49.012;8.370;2023-07-30T03:21:19;1000.80;;;926.50;;
20486;SDS011;10402;49.012;8.370;2023-07-30T03:23:44;980.20;;;907.57;;
20486;SDS011;10402;49.012;8.370;2023-07-30T03:26:10;1002.30;;;927.10;;
20486;SDS011;10402;49.012;8.370;2023-07-30T03:28:36;1007.73;;;932.00;;
20486;SDS011;10402;49.012;8.370;2023-07-30T03:31:01;994.67;;;920.27;;
20486;SDS011;10402;49.012;8.370;2023-07-30T03:33:27;992.00;;;918.67;;
20486;SDS011;10402;49.012;8.370;2023-07-30T03:35:53;1002.63;;;927.40;;
20486;SDS011;10402;49.012;8.370;2023-07-30T03:38:18;992.43;;;919.40;;
20486;SDS011;10402;49.012;8.370;2023-07-30T03:40:44;1002.17;;;926.97;;
20486;SDS011;10402;49.012;8.370;2023-07-30T03:43:09;990.47;;;917.43;;
20486;SDS011;10402;49.012;8.370;2023-07-30T03:45:35;1010.77;;;935.50;;
20486;SDS011;10402;49.012;8.370;2023-07-30T03:48:00;1004.70;;;930.07;;
20486;SDS011;10402;49.012;8.370;2023-07-30T03:50:26;1009.57;;;934.63;;
20486;SDS011;10402;49.012;8.370;2023-07-30T03:52:51;1025.20;;;948.03;;
20486;SDS011;10402;49.012;8.370;2023-07-30T03:55:17;1015.97;;;939.87;;
20486;SDS011;10402;49.012;8.370;2023-07-30T03:57:43;1016.90;;;939.93;;
20486;SDS011;10402;49.012;8.370;2023-07-30T04:00:09;1013.73;;;938.83;;
20486;SDS011;10402;49.012;8.370;2023-07-30T04:02:34;1031.60;;;954.87;;
20486;SDS011;10402;49.012;8.370;2023-07-30T04:05:00;1012.93;;;937.73;;
20486;SDS011;10402;49.012;8.370;2023-07-30T04:07:26;999.37;;;925.90;;
20486;SDS011;10402;49.012;8.370;2023-07-30T04:09:51;1011.43;;;937.00;;
20486;SDS011;10402;49.012;8.370;2023-07-30T04:12:17;1029.97;;;954.50;;
20486;SDS011;10402;49.012;8.370;2023-07-30T04:14:44;1009.63;;;936.40;;
20486;SDS011;10402;49.012;8.370;2023-07-30T04:17:09;1028.47;;;953.47;;
20486;SDS011;10402;49.012;8.370;2023-07-30T04:19:35;1029.40;;;954.40;;
20486;SDS011;10402;49.012;8.370;2023-07-30T04:22:00;1013.80;;;940.37;;
20486;SDS011;10402;49.012;8.370;2023-07-30T04:24:26;1017.70;;;943.17;;
20486;SDS011;10402;49.012;8.370;2023-07-30T04:26:51;1000.23;;;927.97;;
20486;SDS011;10402;49.012;8.370;2023-07-30T04:29:17;1014.30;;;941.37;;
20486;SDS011;10402;49.012;8.370;2023-07-30T04:31:42;995.50;;;924.27;;
20486;SDS011;10402;49.012;8.370;2023-07-30T04:34:08;998.57;;;926.47;;
20486;SDS011;10402;49.012;8.370;2023-07-30T04:36:33;984.10;;;913.07;;
20486;SDS011;10402;49.012;8.370;2023-07-30T04:38:59;988.80;;;918.07;;
20486;SDS011;10402;49.012;8.370;2023-07-30T04:41:24;977.80;;;907.93;;
20486;SDS011;10402;49.012;8.370;2023-07-30T04:43:50;977.03;;;907.07;;
20486;SDS011;10402;49.012;8.370;2023-07-30T04:46:15;944.87;;;878.77;;
20486;SDS011;10402;49.012;8.370;2023-07-30T04:48:41;973.57;;;905.07;;
20486;SDS011;10402;49.012;8.370;2023-07-30T04:51:06;983.63;;;914.57;;
20486;SDS011;10402;49.012;8.370;2023-07-30T04:53:32;964.37;;;896.67;;
20486;SDS011;10402;49.012;8.370;2023-07-30T04:55:58;950.97;;;885.17;;
20486;SDS011;10402;49.012;8.370;2023-07-30T04:58:24;980.20;;;911.33;;
20486;SDS011;10402;49.012;8.370;2023-07-30T05:00:49;968.53;;;900.33;;
20486;SDS011;10402;49.012;8.370;2023-07-30T05:03:15;973.27;;;904.67;;
20486;SDS011;10402;49.012;8.370;2023-07-30T05:05:41;969.13;;;900.53;;
20486;SDS011;10402;49.012;8.370;2023-07-30T05:08:06;970.33;;;901.93;;
20486;SDS011;10402;49.012;8.370;2023-07-30T05:10:32;982.23;;;912.20;;
20486;SDS011;10402;49.012;8.370;2023-07-30T05:12:58;968.00;;;899.80;;
20486;SDS011;10402;49.012;8.370;2023-07-30T05:15:23;953.63;;;886.30;;
20486;SDS011;10402;49.012;8.370;2023-07-30T05:17:49;970.33;;;902.23;;
20486;SDS011;10402;49.012;8.370;2023-07-30T05:20:14;963.63;;;896.20;;
20486;SDS011;10402;49.012;8.370;2023-07-30T05:22:40;979.87;;;910.77;;
20486;SDS011;10402;49.012;8.370;2023-07-30T05:25:05;976.77;;;908.47;;
20486;SDS011;10402;49.012;8.370;2023-07-30T05:27:31;967.50;;;899.53;;
20486;SDS011;10402;49.012;8.370;2023-07-30T05:29:57;974.93;;;906.30;;
20486;SDS011;10402;49.012;8.370;2023-07-30T05:32:23;955.87;;;889.07;;
20486;SDS011;10402;49.012;8.370;2023-07-30T05:34:48;967.40;;;899.83;;
20486;SDS011;10402;49.012;8.370;2023-07-30T05:37:14;970.33;;;902.27;;
20486;SDS011;10402;49.012;8.370;2023-07-30T05:39:39;989.27;;;919.43;;
20486;SDS011;10402;49.012;8.370;2023-07-30T05:42:05;999.67;;;928.63;;
20486;SDS011;10402;49.012;8.370;2023-07-30T05:44:30;992.37;;;922.83;;
20486;SDS011;10402;49.012;8.370;2023-07-30T05:46:56;979.43;;;910.80;;
20486;SDS011;10402;49.012;8.370;2023-07-30T05:49:22;976.73;;;908.17;;
20486;SDS011;10402;49.012;8.370;2023-07-30T05:51:47;981.73;;;912.73;;
20486;SDS011;10402;49.012;8.370;2023-07-30T05:54:13;999.57;;;929.20;;
20486;SDS011;10402;49.012;8.370;2023-07-30T05:56:38;969.10;;;901.33;;
20486;SDS011;10402;49.012;8.370;2023-07-30T05:59:04;975.03;;;906.20;;
20486;SDS011;10402;49.012;8.370;2023-07-30T06:01:29;967.57;;;899.47;;
20486;SDS011;10402;49.012;8.370;2023-07-30T06:03:55;985.40;;;914.93;;
20486;SDS011;10402;49.012;8.370;2023-07-30T06:06:20;973.50;;;904.70;;
20486;SDS011;10402;49.012;8.370;2023-07-30T06:08:52;971.67;;;903.13;;
20486;SDS011;10402;49.012;8.370;2023-07-30T06:11:19;969.03;;;900.77;;
20486;SDS011;10402;49.012;8.370;2023-07-30T06:13:44;967.47;;;898.77;;
20486;SDS011;10402;49.012;8.370;2023-07-30T06:16:10;955.47;;;888.10;;
20486;SDS011;10402;49.012;8.370;2023-07-30T06:18:35;967.57;;;899.20;;
20486;SDS011;10402;49.012;8.370;2023-07-30T06:21:01;992.47;;;922.07;;
20486;SDS011;10402;49.012;8.370;2023-07-30T06:23:26;975.17;;;905.87;;
20486;SDS011;10402;49.012;8.370;2023-07-30T06:25:52;973.60;;;904.33;;
20486;SDS011;10402;49.012;8.370;2023-07-30T06:28:17;973.53;;;904.33;;
20486;SDS011;10402;49.012;8.370;2023-07-30T06:30:43;967.10;;;898.97;;
20486;SDS011;10402;49.012;8.370;2023-07-30T06:33:09;971.57;;;902.43;;
20486;SDS011;10402;49.012;8.370;2023-07-30T06:35:34;974.83;;;905.70;;
20486;SDS011;10402;49.012;8.370;2023-07-30T06:38:00;993.33;;;920.90;;
20486;SDS011;10402;49.012;8.370;2023-07-30T06:40:26;987.13;;;914.00;;
20486;SDS011;10402;49.012;8.370;2023-07-30T06:42:51;991.07;;;918.20;;
20486;SDS011;10402;49.012;8.370;2023-07-30T06:45:17;971.23;;;899.70;;
20486;SDS011;10402;49.012;8.370;2023-07-30T06:47:42;942.27;;;873.87;;
20486;SDS011;10402;49.012;8.370;2023-07-30T06:50:08;951.00;;;881.23;;
20486;SDS011;10402;49.012;8.370;2023-07-30T06:52:34;955.27;;;885.00;;
20486;SDS011;10402;49.012;8.370;2023-07-30T06:55:00;943.30;;;874.17;;
20486;SDS011;10402;49.012;8.370;2023-07-30T06:57:28;953.87;;;882.93;;
20486;SDS011;10402;49.012;8.370;2023-07-30T06:59:54;935.30;;;866.70;;
20486;SDS011;10402;49.012;8.370;2023-07-30T07:02:19;947.50;;;877.43;;
20486;SDS011;10402;49.012;8.370;2023-07-30T07:04:45;949.53;;;880.43;;
20486;SDS011;10402;49.012;8.370;2023-07-30T07:07:10;955.07;;;885.40;;
20486;SDS011;10402;49.012;8.370;2023-07-30T07:09:36;963.60;;;893.53;;
20486;SDS011;10402;49.012;8.370;2023-07-30T07:12:01;971.63;;;900.73;;
20486;SDS011;10402;49.012;8.370;2023-07-30T07:14:28;964.70;;;894.23;;
20486;SDS011;10402;49.012;8.370;2023-07-30T07:16:54;974.43;;;902.93;;
20486;SDS011;10402;49.012;8.370;2023-07-30T07:19:21;962.07;;;891.37;;
20486;SDS011;10402;49.012;8.370;2023-07-30T07:21:46;959.20;;;889.07;;
20486;SDS011;10402;49.012;8.370;2023-07-30T07:24:12;969.20;;;898.33;;
20486;SDS011;10402;49.012;8.370;2023-07-30T07:26:37;969.30;;;898.47;;
20486;SDS011;10402;49.012;8.370;2023-07-30T07:29:03;957.90;;;888.87;;
20486;SDS011;10402;49.012;8.370;2023-07-30T07:31:28;968.20;;;897.43;;
20486;SDS011;10402;49.012;8.370;2023-07-30T07:33:54;969.20;;;897.90;;
20486;SDS011;10402;49.012;8.370;2023-07-30T07:36:20;974.10;;;903.03;;
20486;SDS011;10402;49.012;8.370;2023-07-30T07:38:45;979.07;;;907.70;;
20486;SDS011;10402;49.012;8.370;2023-07-30T07:41:14;975.73;;;903.93;;
20486;SDS011;10402;49.012;8.370;2023-07-30T07:43:44;989.77;;;917.67;;
20486;SDS011;10402;49.012;8.370;2023-07-30T07:46:11;986.87;;;915.03;;
20486;SDS011;10402;49.012;8.370;2023-07-30T07:48:43;987.47;;;915.70;;
20486;SDS011;10402;49.012;8.370;2023-07-30T07:51:09;980.73;;;909.20;;
20486;SDS011;10402;49.012;8.370;2023-07-30T07:53:38;1000.47;;;926.43;;
20486;SDS011;10402;49.012;8.370;2023-07-30T07:56:04;1000.17;;;926.27;;
20486;SDS011;10402;49.012;8.370;2023-07-30T07:58:30;996.33;;;923.23;;
20486;SDS011;10402;49.012;8.370;2023-07-30T08:00:56;985.33;;;913.73;;
20486;SDS011;10402;49.012;8.370;2023-07-30T08:03:22;1006.23;;;932.40;;
20486;SDS011;10402;49.012;8.370;2023-07-30T08:05:47;991.80;;;919.53;;
20486;SDS011;10402;49.012;8.370;2023-07-30T08:08:14;999.60;;;926.53;;
20486;SDS011;10402;49.012;8.370;2023-07-30T08:10:40;1012.93;;;938.70;;
20486;SDS011;10402;49.012;8.370;2023-07-30T08:13:08;982.87;;;912.13;;
20486;SDS011;10402;49.012;8.370;2023-07-30T08:15:34;993.83;;;921.80;;
20486;SDS011;10402;49.012;8.370;2023-07-30T08:18:00;1008.37;;;934.93;;
20486;SDS011;10402;49.012;8.370;2023-07-30T08:20:26;1006.97;;;934.07;;
20486;SDS011;10402;49.012;8.370;2023-07-30T08:22:51;990.67;;;918.83;;
20486;SDS011;10402;49.012;8.370;2023-07-30T08:25:17;995.63;;;923.03;;
20486;SDS011;10402;49.012;8.370;2023-07-30T08:27:42;986.47;;;914.97;;
20486;SDS011;10402;49.012;8.370;2023-07-30T08:30:08;974.17;;;903.30;;
20486;SDS011;10402;49.012;8.370;2023-07-30T08:32:34;979.50;;;908.83;;
20486;SDS011;10402;49.012;8.370;2023-07-30T08:34:59;988.90;;;917.30;;
20486;SDS011;10402;49.012;8.370;2023-07-30T08:37:25;975.43;;;904.73;;
20486;SDS011;10402;49.012;8.370;2023-07-30T08:39:51;993.30;;;920.83;;
20486;SDS011;10402;49.012;8.370;2023-07-30T08:42:17;962.83;;;892.77;;
20486;SDS011;10402;49.012;8.370;2023-07-30T08:44:42;970.90;;;900.87;;
20486;SDS011;10402;49.012;8.370;2023-07-30T08:47:08;975.53;;;905.83;;
20486;SDS011;10402;49.012;8.370;2023-07-30T08:49:34;973.80;;;903.87;;
20486;SDS011;10402;49.012;8.370;2023-07-30T08:52:00;990.77;;;919.57;;
20486;SDS011;10402;49.012;8.370;2023-07-30T08:54:29;994.13;;;921.90;;
20486;SDS011;10402;49.012;8.370;2023-07-30T08:56:56;981.60;;;910.37;;
20486;SDS011;10402;49.012;8.370;2023-07-30T08:59:25;1005.33;;;931.13;;
20486;SDS011;10402;49.012;8.370;2023-07-30T09:01:56;993.10;;;920.03;;
20486;SDS011;10402;49.012;8.370;2023-07-30T09:04:23;990.33;;;917.00;;
20486;SDS011;10402;49.012;8.370;2023-07-30T09:06:49;1004.87;;;930.27;;
20486;SDS011;10402;49.012;8.370;2023-07-30T09:09:15;998.07;;;922.93;;
20486;SDS011;10402;49.012;8.370;2023-07-30T09:11:41;1010.13;;;933.53;;
20486;SDS011;10402;49.012;8.370;2023-07-30T09:14:06;1006.80;;;930.53;;
20486;SDS011;10402;49.012;8.370;2023-07-30T09:16:34;1020.87;;;942.03;;
20486;SDS011;10402;49.012;8.370;2023-07-30T09:18:59;1041.70;;;959.97;;
20486;SDS011;10402;49.012;8.370;2023-07-30T09:21:31;1045.20;;;963.13;;
20486;SDS011;10402;49.012;8.370;2023-07-30T09:24:00;1052.23;;;969.93;;
20486;SDS011;10402;49.012;8.370;2023-07-30T09:26:31;1058.53;;;976.53;;
20486;SDS011;10402;49.012;8.370;2023-07-30T09:29:09;1059.40;;;976.53;;
20486;SDS011;10402;49.012;8.370;2023-07-30T09:31:48;1041.80;;;960.73;;
20486;SDS011;10402;49.012;8.370;2023-07-30T09:34:22;1044.30;;;964.27;;
20486;SDS011;10402;49.012;8.370;2023-07-30T09:36:52;1036.80;;;957.87;;
20486;SDS011;10402;49.012;8.370;2023-07-30T09:39:19;1050.63;;;970.30;;
20486;SDS011;10402;49.012;8.370;2023-07-30T09:41:45;1023.27;;;945.80;;
20486;SDS011;10402;49.012;8.370;2023-07-30T09:44:11;1029.33;;;951.53;;
20486;SDS011;10402;49.012;8.370;2023-07-30T09:46:44;1030.57;;;952.70;;
20486;SDS011;10402;49.012;8.370;2023-07-30T09:49:14;1015.10;;;939.47;;
20486;SDS011;10402;49.012;8.370;2023-07-30T09:51:41;1013.60;;;938.17;;
20486;SDS011;10402;49.012;8.370;2023-07-30T09:54:07;1023.67;;;947.33;;
20486;SDS011;10402;49.012;8.370;2023-07-30T09:56:35;1018.40;;;942.13;;
20486;SDS011;10402;49.012;8.370;2023-07-30T09:59:03;1016.70;;;941.67;;
20486;SDS011;10402;49.012;8.370;2023-07-30T10:01:29;1033.17;;;955.87;;
20486;SDS011;10402;49.012;8.370;2023-07-30T10:03:56;1021.93;;;946.07;;
20486;SDS011;10402;49.012;8.370;2023-07-30T10:06:27;985.67;;;913.30;;
20486;SDS011;10402;49.012;8.370;2023-07-30T10:08:55;999.87;;;926.83;;
20486;SDS011;10402;49.012;8.370;2023-07-30T10:11:23;995.00;;;922.07;;
20486;SDS011;10402;49.012;8.370;2023-07-30T10:13:50;1008.57;;;933.53;;
20486;SDS011;10402;49.012;8.370;2023-07-30T10:16:17;1018.03;;;941.80;;
20486;SDS011;10402;49.012;8.370;2023-07-30T10:18:43;1010.20;;;934.43;;
20486;SDS011;10402;49.012;8.370;2023-07-30T10:21:09;1018.10;;;940.87;;
20486;SDS011;10402;49.012;8.370;2023-07-30T10:23:43;1001.87;;;926.97;;
20486;SDS011;10402;49.012;8.370;2023-07-30T10:26:31;1017.90;;;940.67;;
20486;SDS011;10402;49.012;8.370;2023-07-30T10:31:40;1004.97;;;930.40;;
20486;SDS011;10402;49.012;8.370;2023-07-30T10:34:08;1019.23;;;943.07;;
20486;SDS011;10402;49.012;8.370;2023-07-30T10:36:42;1009.83;;;933.93;;
20486;SDS011;10402;49.012;8.370;2023-07-30T10:39:11;977.43;;;903.60;;
20486;SDS011;10402;49.012;8.370;2023-07-30T10:41:54;1022.03;;;943.97;;
20486;SDS011;10402;49.012;8.370;2023-07-30T10:44:22;1016.00;;;938.70;;
20486;SDS011;10402;49.012;8.370;2023-07-30T10:46:53;1015.80;;;937.63;;
20486;SDS011;10402;49.012;8.370;2023-07-30T10:49:20;1021.87;;;942.53;;
20486;SDS011;10402;49.012;8.370;2023-07-30T10:51:45;1016.30;;;937.30;;
20486;SDS011;10402;49.012;8.370;2023-07-30T10:54:11;1022.33;;;943.07;;
20486;SDS011;10402;49.012;8.370;2023-07-30T10:56:37;1030.90;;;950.87;;
20486;SDS011;10402;49.012;8.370;2023-07-30T10:59:04;1017.47;;;939.83;;
20486;SDS011;10402;49.012;8.370;2023-07-30T11:01:31;1018.30;;;940.60;;
20486;SDS011;10402;49.012;8.370;2023-07-30T11:03:56;1018.93;;;940.53;;
20486;SDS011;10402;49.012;8.370;2023-07-30T11:06:23;1017.90;;;938.57;;
20486;SDS011;10402;49.012;8.370;2023-07-30T11:08:49;1012.87;;;933.67;;
20486;SDS011;10402;49.012;8.370;2023-07-30T11:11:15;1019.73;;;939.87;;
20486;SDS011;10402;49.012;8.370;2023-07-30T11:13:45;1013.17;;;934.17;;
20486;SDS011;10402;49.012;8.370;2023-07-30T11:16:11;1023.63;;;943.60;;
20486;SDS011;10402;49.012;8.370;2023-07-30T11:18:38;1024.07;;;943.50;;
20486;SDS011;10402;49.012;8.370;2023-07-30T11:21:05;1023.20;;;942.67;;
20486;SDS011;10402;49.012;8.370;2023-07-30T11:23:36;1033.43;;;952.70;;
20486;SDS011;10402;49.012;8.370;2023-07-30T11:26:04;1032.47;;;952.23;;
20486;SDS011;10402;49.012;8.370;2023-07-30T11:28:32;1032.07;;;951.27;;
20486;SDS011;10402;49.012;8.370;2023-07-30T11:31:03;1016.67;;;938.40;;
20486;SDS011;10402;49.012;8.370;2023-07-30T11:33:30;1005.43;;;928.43;;
20486;SDS011;10402;49.012;8.370;2023-07-30T11:35:57;1015.60;;;936.83;;
20486;SDS011;10402;49.012;8.370;2023-07-30T11:38:25;1007.30;;;929.70;;
20486;SDS011;10402;49.012;8.370;2023-07-30T11:40:52;1017.83;;;938.17;;
20486;SDS011;10402;49.012;8.370;2023-07-30T11:43:19;1004.33;;;926.33;;
20486;SDS011;10402;49.012;8.370;2023-07-30T11:45:46;1011.03;;;932.67;;
20486;SDS011;10402;49.012;8.370;2023-07-30T11:48:12;998.77;;;921.77;;
20486;SDS011;10402;49.012;8.370;2023-07-30T11:50:47;1008.10;;;929.80;;
20486;SDS011;10402;49.012;8.370;2023-07-30T11:53:14;1001.93;;;924.67;;
20486;SDS011;10402;49.012;8.370;2023-07-30T11:55:40;998.43;;;922.30;;
20486;SDS011;10402;49.012;8.370;2023-07-30T11:58:07;1006.00;;;930.90;;
20486;SDS011;10402;49.012;8.370;2023-07-30T12:00:37;1008.90;;;934.03;;
20486;SDS011;10402;49.012;8.370;2023-07-30T12:03:04;999.17;;;925.23;;
20486;SDS011;10402;49.012;8.370;2023-07-30T12:05:32;1001.73;;;926.77;;
20486;SDS011;10402;49.012;8.370;2023-07-30T12:07:59;1006.27;;;931.70;;
20486;SDS011;10402;49.012;8.370;2023-07-30T12:10:27;1007.40;;;932.47;;
20486;SDS011;10402;49.012;8.370;2023-07-30T12:12:53;1003.93;;;929.53;;
20486;SDS011;10402;49.012;8.370;2023-07-30T12:15:19;1013.53;;;938.20;;
20486;SDS011;10402;49.012;8.370;2023-07-30T12:17:44;1016.93;;;941.77;;
20486;SDS011;10402;49.012;8.370;2023-07-30T12:20:11;1004.60;;;930.60;;
20486;SDS011;10402;49.012;8.370;2023-07-30T12:22:36;999.83;;;926.93;;
20486;SDS011;10402;49.012;8.370;2023-07-30T12:25:03;1012.60;;;938.87;;
20486;SDS011;10402;49.012;8.370;2023-07-30T12:27:29;1011.73;;;937.33;;
20486;SDS011;10402;49.012;8.370;2023-07-30T12:29:55;1002.83;;;929.00;;
20486;SDS011;10402;49.012;8.370;2023-07-30T12:32:21;994.50;;;921.77;;
20486;SDS011;10402;49.012;8.370;2023-07-30T12:34:46;996.13;;;922.53;;
20486;SDS011;10402;49.012;8.370;2023-07-30T12:37:12;993.37;;;921.03;;
20486;SDS011;10402;49.012;8.370;2023-07-30T12:39:37;989.83;;;917.37;;
20486;SDS011;10402;49.012;8.370;2023-07-30T12:42:03;1012.73;;;938.67;;
20486;SDS011;10402;49.012;8.370;2023-07-30T12:44:29;990.63;;;917.97;;
20486;SDS011;10402;49.012;8.370;2023-07-30T12:46:54;987.23;;;915.07;;
20486;SDS011;10402;49.012;8.370;2023-07-30T12:49:20;974.83;;;903.97;;
20486;SDS011;10402;49.012;8.370;2023-07-30T12:51:45;976.87;;;905.80;;
20486;SDS011;10402;49.012;8.370;2023-07-30T12:54:11;979.57;;;908.03;;
20486;SDS011;10402;49.012;8.370;2023-07-30T12:56:36;975.63;;;905.47;;
20486;SDS011;10402;49.012;8.370;2023-07-30T12:59:02;986.67;;;914.90;;
20486;SDS011;10402;49.012;8.370;2023-07-30T13:01:28;1008.53;;;933.67;;
20486;SDS011;10402;49.012;8.370;2023-07-30T13:03:53;1019.33;;;943.07;;
20486;SDS011;10402;49.012;8.370;2023-07-30T13:06:20;988.43;;;915.37;;
20486;SDS011;10402;49.012;8.370;2023-07-30T13:08:46;996.80;;;922.80;;
20486;SDS011;10402;49.012;8.370;2023-07-30T13:11:12;994.83;;;921.17;;
20486;SDS011;10402;49.012;8.370;2023-07-30T13:13:37;1009.23;;;933.30;;
20486;SDS011;10402;49.012;8.370;2023-07-30T13:16:03;999.33;;;924.73;;
20486;SDS011;10402;49.012;8.370;2023-07-30T13:18:29;1007.00;;;932.77;;
20486;SDS011;10402;49.012;8.370;2023-07-30T13:20:54;996.43;;;922.83;;
20486;SDS011;10402;49.012;8.370;2023-07-30T13:23:20;997.37;;;923.23;;
20486;SDS011;10402;49.012;8.370;2023-07-30T13:25:45;997.57;;;922.90;;
20486;SDS011;10402;49.012;8.370;2023-07-30T13:28:11;991.93;;;918.60;;
20486;SDS011;10402;49.012;8.370;2023-07-30T13:30:37;973.10;;;901.60;;
20486;SDS011;10402;49.012;8.370;2023-07-30T13:33:02;992.23;;;918.37;;
20486;SDS011;10402;49.012;8.370;2023-07-30T13:35:28;988.03;;;914.63;;
20486;SDS011;10402;49.012;8.370;2023-07-30T13:37:53;996.47;;;922.13;;
20486;SDS011;10402;49.012;8.370;2023-07-30T13:40:19;986.33;;;913.50;;
20486;SDS011;10402;49.012;8.370;2023-07-30T13:42:45;988.73;;;915.50;;
20486;SDS011;10402;49.012;8.370;2023-07-30T13:45:11;975.83;;;903.23;;
20486;SDS011;10402;49.012;8.370;2023-07-30T13:47:36;978.90;;;906.13;;
20486;SDS011;10402;49.012;8.370;2023-07-30T13:50:02;970.60;;;898.90;;
20486;SDS011;10402;49.012;8.370;2023-07-30T13:52:28;958.23;;;888.17;;